Airfield :
LOGIN :

Register | Disclaimer

   EN    FR    IT 

 










Legend :    VFR   Marginal VFR   IFR   Intensive IFR   Very Intensive IFR
Visi :
Ceiling :
>= 8 km
>= 3000ft
5 to 8 km
1000 to 3000 ft
1500m to 5 km
500 to 1000 ft
800 to 1500m
200 to 500 ft
< 800m
< 200 ft
Symbols :   Thunderstorms  Fog  Heavy snow  Heavy precipitations  Wind > 20 kt
SIGMETs :     Misc.  Thunderstorms  Icing  Turbulence  Mountain Waves  Volcanic Ashes







- Airport Elevation : 1487 ft
- IATA code : MUC


EDDM - München Franz Josef Strauss

CURRENT METAR :
  • 260250Z 04006KT CAVOK 02/M00 Q1019 NOSIG

EXPIRED METARs :
  • 260220Z 04005KT CAVOK 02/M00 Q1019 NOSIG
  • 260150Z 04006KT CAVOK 03/M00 Q1019 NOSIG
  • 260120Z 04006KT CAVOK 03/00 Q1019 NOSIG

TAF TAF EDDM
Valid from the 26 at 00:00 until the 27 at 06:00 UTC


252300Z 2600/2706 05006KT CAVOK
BECMG 2608/2610 08011KT
BECMG 2617/2619 06006KT
No reported NOTAMs for that airfield.



MET'MAP, your aeronautical weather chart ! - Copyright ORBIFLY December 2007 - Disclaimer

ORBIFLY MET'MAP TEAM :

Programming & Development : Alexandra Zaïnal
Concept & Development : Baudouin d'Aumeries
Co-Development & Prog : Marc-Olivier Méhu
Technical & hardware support : Manuel Goepfert

Contact : metmap@orbifly.com




SOURCES & CREDITS :

   NOAA